Nearby METAR Reports

 

KSJC - San Jose, California, USA
Distance from station: NE 9mi, 14km
Updated: Sat, 16-Feb-2019 3:37am PST
Light rain, Overcast
Light rain, Overcast
 Wind from calm
Wind: Calm
Temperature: 45°F , 7°C
Dew Point: 43°F , 6°C
Humidity: 93%
Barometer: 30.15 inHg , 1021 hPa
Summary: Light rain
Clouds: Overcast
Visibility: 10 miles , 16 km
Cloud details: Mostly cloudy 2500 ft
Mostly cloudy 3000 ft
Overcast 5000 ft
2019/02/16 11:37 KSJC 161137Z AUTO 00000KT 10SM -RA BKN025 BKN030 OVC050 07/06 A3015 RMK AO2 RAB1055E12B28 P0002 T00670061
KNUQ - Moffett Nas/Mtn, California, USA
Distance from station: N 9mi, 14km
Updated: Sat, 16-Feb-2019 3:33am PST
Light rain, Mostly cloudy
Light rain, Mostly cloudy
 Wind from ESE
Wind: ESE 5 mph , 7 km/h
Temperature: 45°F , 7°C
Wind Chill: 42°F , 6°C
Dew Point: 45°F , 7°C
Humidity: 100%
Barometer: 30.14 inHg , 1020.7 hPa
Summary: Light rain
Clouds: Mostly cloudy
Visibility: 10 miles , 16 km
Cloud details: Few Clouds 2100 ft
Partly cloudy 3000 ft
Mostly cloudy 4000 ft
2019/02/16 11:33 KNUQ 161133Z 11004KT 10SM -RA FEW021 SCT030 BKN040 07/07 A3014 RMK AO2 RAB23 P0001 T00670067
 
KPAO - Palo Alto, California, USA
Distance from station: NNW 14mi, 23km
Updated: Fri, 15-Feb-2019 8:47pm PST
NOT Current
Clear
Clear
 Wind from S
Wind: S 8 mph , 13 km/h
Temperature: 46°F , 8°C
Wind Chill: 42°F , 6°C
Barometer: 30.08 inHg , 1018.6 hPa
Clouds: Clear
Visibility: 10 miles , 16 km
2019/02/16 04:47 KPAO 160447Z 17007KT 10SM SKC 08/ A3008 RMK LAST
KRHV - San Jose/Reid, California, USA
Distance from station: ENE 12mi, 19km
Updated: Fri, 15-Feb-2019 5:47pm PST
NOT Current
Overcast
Overcast
 Wind from varies
Wind: varies 6 mph , 9 km/h
Temperature: 45°F , 7°C
Wind Chill: 42°F , 6°C
Dew Point: 43°F , 6°C
Humidity: 93%
Barometer: 30.03 inHg , 1016.9 hPa
Clouds: Overcast
Visibility: 7 miles , 11 km
Cloud details: Overcast 4000 ft
2019/02/16 01:47 KRHV 160147Z VRB05KT 7SM OVC040 07/06 A3003 RA
 
KOAK - Oakland, California, USA
Distance from station: NNW 31mi, 50km
Updated: Sat, 16-Feb-2019 2:53am PST
Light rain, Overcast
Light rain, Overcast
 Wind from ESE
Wind: ESE 3 mph , 6 km/h
Temperature: 46°F , 8°C
Dew Point: 45°F , 7°C
Humidity: 93%
Barometer: 30.13 inHg , 1020.3 hPa
Summary: Light rain
Clouds: Overcast
Visibility: 9 miles , 14 km
Cloud details: Partly cloudy 2000 ft
Mostly cloudy 3000 ft
Overcast 5000 ft
2019/02/16 10:53 KOAK 161053Z 12003KT 9SM -RA SCT020 BKN030 OVC050 08/07 A3013 RMK AO2 RAB27 SLP202 P0003 T00830067
KSQL - San Carlos Airpo, California, USA
Distance from station: NW 21mi, 34km
Updated: Sat, 16-Feb-2019 3:35am PST
Light rain, Overcast
Light rain, Overcast
 Wind from NW
Wind: NW 3 mph , 6 km/h
Temperature: 45°F , 7°C
Dew Point: 43°F , 6°C
Humidity: 93%
Barometer: 30.14 inHg , 1020.7 hPa
Summary: Light rain
Clouds: Overcast
Visibility: 7 miles , 11 km
Cloud details: Mostly cloudy 3300 ft
Overcast 4300 ft
2019/02/16 11:35 KSQL 161135Z AUTO 31003KT 7SM -RA BKN033 OVC043 07/06 A3014 RMK AO2 P0002
 
KSFO - San Francisco, California, USA
Distance from station: NW 30mi, 49km
Updated: Sat, 16-Feb-2019 2:56am PST
Haze, Mostly cloudy
Haze, Mostly cloudy
 Wind from WNW
Wind: WNW 9 mph , 15 km/h
Temperature: 46°F , 8°C
Wind Chill: 41°F , 5°C
Dew Point: 39°F , 4°C
Humidity: 76%
Barometer: 30.11 inHg , 1019.6 hPa
Summary: Haze
Clouds: Mostly cloudy
Visibility: 5 miles , 8 km
Cloud details: Few Clouds 2900 ft
Mostly cloudy 3500 ft
Mostly cloudy 6000 ft
2019/02/16 10:56 KSFO 161056Z 30008KT 5SM HZ FEW029 BKN035 BKN060 08/04 A3011 RMK AO2 RAB35E54 SLP196 P0005 T00830039
KE16 - San Martin, California, USA
Distance from station: ESE 27mi, 43km
Updated: Sat, 16-Feb-2019 3:35am PST
Mist
Mist
 Wind from N
Wind: N 3 mph , 6 km/h
Temperature: 41°F , 5°C
Dew Point: 41°F , 5°C
Humidity: 100%
Barometer: 30.16 inHg , 1021.3 hPa
Summary: Mist
Visibility: 4 miles , 6 km
2019/02/16 11:35 KE16 161135Z AUTO 01003KT 4SM BR 05/05 A3016 RMK AO2 PWINO PNO
 
KWVI - Watsonville, California, USA
Distance from station: SSE 27mi, 44km
Updated: Sat, 16-Feb-2019 2:53am PST
Light rain, Overcast
Light rain, Overcast
 Wind from calm
Wind: Calm
Temperature: 43°F , 6°C
Dew Point: 43°F , 6°C
Humidity: 100%
Barometer: 30.14 inHg , 1020.7 hPa
Summary: Light rain
Clouds: Overcast
Visibility: 10 miles , 16 km
Cloud details: Mostly cloudy 2800 ft
Overcast 3400 ft
2019/02/16 10:53 KWVI 161053Z AUTO 00000KT 10SM -RA BKN028 OVC034 06/06 A3014 RMK AO2 RAB19 SLP208 P0002 T00610061
KHAF - Half Moon Bay, California, USA
Distance from station: WNW 31mi, 50km
Updated: Wed, 13-Feb-2019 2:15pm PST
NOT Current
Light rain, Overcast
Light rain, Overcast
 Wind from S
Wind: S 33 mph , 54 km/h, Gust: 43 mph , 69 km/h
Temperature: 55°F , 13°C
Dew Point: 54°F , 12°C
Humidity: 94%
Barometer: 29.54 inHg , 1000.3 hPa
Summary: Light rain
Clouds: Overcast
Visibility: 3/4 mile , 1.2 km
Cloud details: Overcast 700 ft
2019/02/13 22:15 KHAF 132215Z AUTO 17029G37KT 3/4SM -RA OVC007 13/12 A2954 RMK AO2
 
KHWD - Hayward, California, USA
Distance from station: N 28mi, 44km
Updated: Sat, 16-Feb-2019 3:24am PST
Overcast
Overcast
 Wind from SSE
Wind: SSE 7 mph , 11 km/h
Temperature: 46°F , 8°C
Wind Chill: 42°F , 6°C
Dew Point: 43°F , 6°C
Humidity: 87%
Barometer: 30.12 inHg , 1020 hPa
Clouds: Overcast
Visibility: 10 miles , 16 km
Cloud details: Few Clouds 1500 ft
Partly cloudy 2500 ft
Overcast 4900 ft
2019/02/16 11:24 KHWD 161124Z 16006KT 10SM FEW015 SCT025 OVC049 08/06 A3012 RMK AO2 RAE19 P0006 T00830056
KLVK - Livermore, California, USA
Distance from station: NNE 31mi, 51km
Updated: Sat, 16-Feb-2019 3:49am PST
Overcast
Overcast
 Wind from SW
Wind: SW 7 mph , 11 km/h
Temperature: 45°F , 7°C
Wind Chill: 41°F , 5°C
Dew Point: 41°F , 5°C
Humidity: 87%
Barometer: 30.11 inHg , 1019.6 hPa
Clouds: Overcast
Visibility: 9 miles , 14 km
Cloud details: Mostly cloudy 2300 ft
Mostly cloudy 3300 ft
Overcast 5000 ft
2019/02/16 11:49 KLVK 161149Z AUTO 22006KT 9SM BKN023 BKN033 OVC050 07/05 A3011 RMK AO2 RAB1054E49 P0001